createdAt,value
2023-10-06T00:02:29.746Z,59.62
2023-10-06T00:04:57.108Z,60.93
2023-10-06T00:07:25.227Z,64.19
2023-10-06T00:09:54.894Z,64.84
2023-10-06T00:12:21.708Z,64.35
2023-10-06T00:14:51.491Z,60.91
2023-10-06T00:17:18.911Z,62.45
2023-10-06T00:19:46.504Z,63.89
2023-10-06T00:22:19.065Z,64.62
2023-10-06T00:24:48.958Z,63.19
2023-10-06T00:27:16.751Z,63.91
2023-10-06T00:29:53.820Z,63.83
2023-10-06T00:32:23.433Z,63.05
2023-10-06T00:34:55.620Z,62.91
2023-10-06T00:37:25.834Z,63.30
2023-10-06T00:39:58.510Z,63.44
2023-10-06T00:42:27.761Z,64.36
2023-10-06T00:44:54.943Z,64.43
2023-10-06T00:47:22.628Z,64.69
2023-10-06T00:49:49.497Z,63.68
2023-10-06T00:52:16.800Z,64.00
2023-10-06T00:54:45.010Z,63.14
2023-10-06T00:57:20.055Z,63.05
2023-10-06T00:59:46.746Z,62.13
2023-10-06T01:02:17.240Z,61.91
2023-10-06T01:04:53.757Z,61.37
2023-10-06T01:07:20.434Z,61.25
2023-10-06T01:10:08.116Z,60.39
2023-10-06T01:12:35.741Z,59.60
2023-10-06T01:15:20.806Z,59.57
2023-10-06T01:17:48.736Z,57.46
2023-10-06T01:20:34.741Z,56.92
2023-10-06T01:23:01.859Z,57.67
2023-10-06T01:25:29.361Z,58.68
2023-10-06T01:27:55.829Z,57.68
2023-10-06T01:30:22.895Z,57.91
2023-10-06T01:32:52.824Z,57.19
2023-10-06T01:35:22.383Z,57.34
2023-10-06T01:37:49.559Z,57.20
2023-10-06T01:40:36.494Z,58.41
2023-10-06T01:43:11.099Z,58.79
2023-10-06T01:45:45.041Z,61.92
2023-10-06T01:48:14.698Z,62.14
2023-10-06T01:50:42.673Z,62.78
2023-10-06T01:53:11.514Z,62.69
2023-10-06T01:55:39.615Z,61.79
2023-10-06T01:58:08.778Z,63.24
2023-10-06T02:00:37.143Z,63.15
2023-10-06T02:03:11.987Z,62.49
2023-10-06T02:05:42.094Z,61.68
2023-10-06T02:08:15.852Z,61.99
2023-10-06T02:10:46.239Z,61.13
2023-10-06T02:13:12.753Z,58.98
2023-10-06T02:15:39.306Z,59.33
2023-10-06T02:18:08.443Z,59.84
2023-10-06T02:20:36.100Z,60.00
2023-10-06T02:23:04.552Z,60.14
2023-10-06T02:25:32.841Z,60.60
2023-10-06T02:28:05.261Z,61.30
2023-10-06T02:30:35.229Z,60.86
2023-10-06T02:33:01.991Z,62.64
2023-10-06T02:35:28.649Z,62.52
2023-10-06T02:37:59.034Z,62.10
2023-10-06T02:40:32.393Z,61.16
2023-10-06T02:43:01.359Z,61.35
2023-10-06T02:45:38.425Z,60.80
2023-10-06T02:48:15.505Z,61.48
2023-10-06T02:50:45.733Z,61.98
2023-10-06T02:53:21.283Z,61.61
2023-10-06T02:55:50.377Z,61.48
2023-10-06T02:58:28.150Z,62.03
2023-10-06T03:00:56.832Z,61.60
2023-10-06T03:03:28.018Z,61.74
2023-10-06T03:05:56.981Z,61.36
2023-10-06T03:08:29.002Z,62.03
2023-10-06T03:10:55.562Z,61.66
2023-10-06T03:13:44.119Z,61.85
2023-10-06T03:16:13.807Z,60.36
2023-10-06T03:18:40.870Z,61.30
2023-10-06T03:21:13.400Z,62.33
2023-10-06T03:23:40.466Z,61.79
2023-10-06T03:26:25.839Z,62.87
2023-10-06T03:28:54.345Z,62.49
2023-10-06T03:31:21.623Z,62.88
2023-10-06T03:33:56.073Z,63.42
2023-10-06T03:36:35.530Z,62.86
2023-10-06T03:39:08.316Z,62.88
2023-10-06T03:41:38.364Z,62.44
2023-10-06T03:44:06.247Z,61.81
2023-10-06T03:46:39.218Z,61.68
2023-10-06T03:49:06.602Z,61.11
2023-10-06T03:51:38.927Z,61.11
2023-10-06T03:54:06.399Z,60.72
2023-10-06T03:56:33.641Z,60.71
2023-10-06T03:59:06.482Z,60.82
2023-10-06T04:01:33.359Z,60.83
2023-10-06T04:04:00.103Z,61.06
2023-10-06T04:06:29.659Z,61.34
2023-10-06T04:08:58.245Z,61.44
2023-10-06T04:11:31.047Z,61.70
2023-10-06T04:13:59.049Z,61.42
2023-10-06T04:16:26.397Z,61.19
2023-10-06T04:18:52.978Z,61.28
2023-10-06T04:21:21.338Z,61.32
2023-10-06T04:23:47.886Z,61.33
2023-10-06T04:26:17.724Z,61.16
2023-10-06T04:28:49.248Z,61.31
2023-10-06T04:31:19.586Z,61.74
2023-10-06T04:33:46.278Z,61.64
2023-10-06T04:36:14.236Z,62.06
2023-10-06T04:38:41.701Z,61.32
2023-10-06T04:41:09.700Z,61.35
2023-10-06T04:43:37.589Z,61.06
2023-10-06T04:46:06.561Z,60.92
2023-10-06T04:48:37.063Z,61.10
2023-10-06T04:51:05.042Z,61.24
2023-10-06T04:53:37.644Z,61.54
2023-10-06T04:56:05.720Z,61.01
2023-10-06T04:58:32.547Z,61.75
2023-10-06T05:01:02.009Z,62.26
2023-10-06T05:03:28.917Z,62.33
2023-10-06T05:05:57.061Z,62.18
2023-10-06T05:08:25.812Z,62.46
2023-10-06T05:10:57.152Z,62.99
2023-10-06T05:13:23.856Z,63.03
2023-10-06T05:15:51.284Z,63.25
2023-10-06T05:18:17.954Z,63.69
2023-10-06T05:20:44.894Z,63.09
2023-10-06T05:23:13.110Z,62.86
2023-10-06T05:25:40.995Z,62.43
2023-10-06T05:28:12.031Z,62.28
2023-10-06T05:30:39.678Z,62.05
2023-10-06T05:33:06.873Z,61.59
2023-10-06T05:35:39.748Z,61.38
2023-10-06T05:38:09.800Z,61.41
2023-10-06T05:40:36.644Z,61.12
2023-10-06T05:43:05.505Z,60.65
2023-10-06T05:45:32.270Z,60.70
2023-10-06T05:48:08.089Z,60.72
2023-10-06T05:50:36.867Z,60.50
2023-10-06T05:53:13.984Z,60.54
2023-10-06T05:55:44.302Z,61.20
2023-10-06T05:58:15.685Z,61.13
2023-10-06T06:00:52.455Z,61.51
2023-10-06T06:03:22.015Z,61.91
2023-10-06T06:05:49.912Z,62.54
2023-10-06T06:08:16.501Z,62.65
2023-10-06T06:10:43.276Z,62.39
2023-10-06T06:13:09.878Z,62.73
2023-10-06T06:15:36.716Z,63.11
2023-10-06T06:18:03.406Z,63.12
2023-10-06T06:20:30.369Z,63.44
2023-10-06T06:23:03.447Z,62.99
2023-10-06T06:25:30.864Z,63.48
2023-10-06T06:28:00.512Z,63.55
2023-10-06T06:30:28.069Z,63.88
2023-10-06T06:32:55.829Z,64.21
2023-10-06T06:35:24.292Z,63.89
2023-10-06T06:37:52.578Z,63.46
2023-10-06T06:40:23.580Z,63.50
2023-10-06T06:42:52.638Z,62.47
2023-10-06T06:45:20.324Z,62.49
2023-10-06T06:47:46.952Z,62.46
2023-10-06T06:50:15.235Z,62.28
2023-10-06T06:52:42.251Z,62.35
2023-10-06T06:55:13.921Z,62.18
2023-10-06T06:57:43.233Z,62.04
2023-10-06T07:00:16.935Z,61.49
2023-10-06T07:02:44.391Z,61.68
2023-10-06T07:05:15.264Z,62.40
2023-10-06T07:07:44.414Z,61.57
2023-10-06T07:10:14.986Z,61.34
2023-10-06T07:12:46.178Z,61.99
2023-10-06T07:15:19.084Z,62.29
2023-10-06T07:17:47.975Z,61.37
2023-10-06T07:20:17.930Z,61.53
2023-10-06T07:22:48.734Z,60.32
2023-10-06T07:25:16.848Z,59.86
2023-10-06T07:27:45.747Z,59.54
2023-10-06T07:30:16.012Z,58.56
2023-10-06T07:32:44.410Z,58.14
2023-10-06T07:35:15.819Z,57.92
2023-10-06T07:37:44.242Z,57.87
2023-10-06T07:40:15.848Z,57.00
2023-10-06T07:42:43.715Z,55.97
2023-10-06T07:45:10.709Z,55.86
2023-10-06T07:47:39.169Z,56.23
2023-10-06T07:50:06.712Z,55.29
2023-10-06T07:52:37.242Z,54.79
2023-10-06T07:55:10.916Z,54.13
2023-10-06T07:57:39.087Z,53.66
2023-10-06T08:00:08.205Z,53.26
2023-10-06T08:02:34.762Z,53.99
2023-10-06T08:05:01.274Z,53.47
2023-10-06T08:07:28.860Z,53.23
2023-10-06T08:09:59.999Z,52.94
2023-10-06T08:12:28.391Z,52.04
2023-10-06T08:14:55.604Z,51.04
2023-10-06T08:17:22.187Z,52.28
2023-10-06T08:19:48.788Z,50.84
2023-10-06T08:22:17.035Z,50.10
2023-10-06T08:24:44.629Z,49.97
2023-10-06T08:27:12.853Z,49.74
2023-10-06T08:29:39.638Z,49.24
2023-10-06T08:32:07.713Z,49.36
2023-10-06T08:34:40.344Z,49.24
2023-10-06T08:37:12.288Z,48.69
2023-10-06T08:39:41.915Z,46.90
2023-10-06T08:42:13.195Z,46.51
2023-10-06T08:44:43.121Z,46.08
2023-10-06T08:47:26.313Z,45.37
2023-10-06T08:49:57.614Z,44.87
2023-10-06T08:52:24.274Z,44.84
2023-10-06T08:54:50.771Z,43.67
2023-10-06T08:57:17.301Z,43.22
2023-10-06T08:59:45.014Z,42.60
2023-10-06T09:02:11.708Z,41.77
2023-10-06T09:04:38.377Z,41.73
2023-10-06T09:07:09.795Z,40.72
2023-10-06T09:09:37.504Z,41.38
2023-10-06T09:12:05.047Z,40.12
2023-10-06T09:14:32.113Z,40.37
2023-10-06T09:17:02.918Z,39.42
2023-10-06T09:19:50.027Z,40.42
2023-10-06T09:22:17.778Z,40.25
2023-10-06T09:24:57.068Z,39.32
2023-10-06T09:27:26.366Z,38.93
2023-10-06T09:30:11.874Z,39.82
2023-10-06T09:32:40.307Z,38.38
2023-10-06T09:35:20.555Z,37.59
2023-10-06T09:37:47.751Z,37.81
2023-10-06T09:40:24.021Z,36.80
2023-10-06T09:42:51.937Z,36.48
2023-10-06T09:45:22.665Z,36.62
2023-10-06T09:48:00.753Z,32.64
2023-10-06T09:50:29.692Z,32.81
2023-10-06T09:53:04.445Z,32.40
2023-10-06T09:55:32.473Z,29.59
2023-10-06T09:57:59.538Z,30.51
2023-10-06T10:00:31.045Z,29.82
2023-10-06T10:02:59.281Z,30.00
2023-10-06T10:05:26.618Z,29.99
2023-10-06T10:07:54.620Z,29.22
2023-10-06T10:10:24.825Z,28.95
2023-10-06T10:13:08.790Z,28.04
2023-10-06T10:16:11.027Z,28.99
2023-10-06T10:18:41.751Z,28.27
2023-10-06T10:21:13.139Z,28.43
2023-10-06T10:23:42.734Z,27.87
2023-10-06T10:26:17.497Z,27.40
2023-10-06T10:28:46.861Z,27.22
2023-10-06T10:31:18.735Z,26.73
2023-10-06T10:33:48.111Z,26.51
2023-10-06T10:36:16.089Z,26.78
2023-10-06T10:38:43.502Z,26.23
2023-10-06T10:41:11.330Z,26.04
2023-10-06T10:43:46.853Z,25.57
2023-10-06T10:46:14.035Z,25.90
2023-10-06T10:48:48.699Z,24.74
2023-10-06T10:51:16.439Z,24.85
2023-10-06T10:53:49.087Z,24.43
2023-10-06T10:56:26.511Z,23.90
2023-10-06T10:58:55.000Z,24.07
2023-10-06T11:01:28.931Z,24.65
2023-10-06T11:04:20.033Z,24.57
2023-10-06T11:06:51.042Z,25.28
2023-10-06T11:09:30.846Z,25.31
2023-10-06T11:12:23.222Z,24.51
2023-10-06T11:14:53.294Z,23.69
2023-10-06T11:17:22.006Z,24.41
2023-10-06T11:20:06.136Z,23.82
2023-10-06T11:22:34.364Z,24.08
2023-10-06T11:25:04.671Z,24.15
2023-10-06T11:27:31.270Z,24.32
2023-10-06T11:29:59.932Z,24.98
2023-10-06T11:32:27.827Z,24.97
2023-10-06T11:34:55.701Z,23.87
2023-10-06T11:37:26.288Z,24.04
2023-10-06T11:39:54.692Z,23.85
2023-10-06T11:42:27.288Z,23.81
2023-10-06T11:44:54.454Z,24.17
2023-10-06T11:47:25.783Z,23.71
2023-10-06T11:49:58.573Z,23.66
2023-10-06T11:52:31.003Z,22.98
2023-10-06T11:54:59.905Z,22.49
2023-10-06T11:57:47.446Z,23.06
2023-10-06T12:00:18.516Z,22.66
2023-10-06T12:02:51.545Z,22.85
2023-10-06T12:05:24.249Z,22.52
2023-10-06T12:07:51.129Z,23.50
2023-10-06T12:10:20.083Z,22.38
2023-10-06T12:12:47.336Z,21.80
2023-10-06T12:15:17.923Z,22.36
2023-10-06T12:17:45.029Z,22.60
2023-10-06T12:20:15.317Z,22.13
2023-10-06T12:22:45.219Z,23.47
2023-10-06T12:25:13.085Z,22.74
2023-10-06T12:27:44.768Z,23.14
2023-10-06T12:30:15.767Z,21.77
2023-10-06T12:32:46.835Z,22.97
2023-10-06T12:35:19.268Z,22.55
2023-10-06T12:37:47.585Z,22.52
2023-10-06T12:40:16.688Z,22.30
2023-10-06T12:42:44.406Z,22.66
2023-10-06T12:45:19.623Z,21.96
2023-10-06T12:47:50.747Z,22.33
2023-10-06T12:50:20.371Z,23.22
2023-10-06T12:52:50.919Z,22.45
2023-10-06T12:55:22.208Z,22.96
2023-10-06T12:57:53.403Z,23.16
2023-10-06T13:00:21.069Z,23.35
2023-10-06T13:02:51.117Z,23.82
2023-10-06T13:05:20.126Z,23.17
2023-10-06T13:07:48.140Z,23.75
2023-10-06T13:10:17.124Z,24.41
2023-10-06T13:12:44.750Z,23.74
2023-10-06T13:15:15.959Z,24.28
2023-10-06T13:17:43.142Z,23.82
2023-10-06T13:20:11.147Z,23.44
2023-10-06T13:22:38.789Z,23.64
2023-10-06T13:25:07.622Z,24.32
2023-10-06T13:27:35.175Z,23.54
2023-10-06T13:30:04.774Z,23.57
2023-10-06T13:32:31.559Z,23.77
2023-10-06T13:34:58.299Z,23.72
2023-10-06T13:37:25.304Z,23.89
2023-10-06T13:39:51.787Z,24.60
2023-10-06T13:42:18.622Z,24.72
2023-10-06T13:44:45.948Z,24.46
2023-10-06T13:47:12.531Z,24.73
2023-10-06T13:49:39.820Z,24.79
2023-10-06T13:52:06.946Z,23.79
2023-10-06T13:54:33.971Z,24.18
2023-10-06T13:57:01.739Z,23.59
2023-10-06T13:59:29.853Z,24.15
2023-10-06T14:01:56.611Z,24.04
2023-10-06T14:04:25.011Z,24.70
2023-10-06T14:06:51.612Z,25.09
2023-10-06T14:09:24.942Z,25.66
2023-10-06T14:11:53.344Z,26.34
2023-10-06T14:14:55.875Z,26.05
2023-10-06T14:17:27.762Z,26.65
2023-10-06T14:19:54.392Z,26.51
2023-10-06T14:22:22.502Z,26.45
2023-10-06T14:24:49.723Z,26.82
2023-10-06T14:27:19.321Z,26.89
2023-10-06T14:29:46.416Z,27.52
2023-10-06T14:32:19.799Z,27.60
2023-10-06T14:35:13.444Z,26.90
2023-10-06T14:37:41.617Z,27.41
2023-10-06T14:40:27.715Z,27.45
2023-10-06T14:43:13.019Z,27.48
2023-10-06T14:45:58.063Z,27.68
2023-10-06T14:48:28.592Z,28.35
2023-10-06T14:50:58.927Z,28.12
2023-10-06T14:53:29.514Z,29.22
2023-10-06T14:55:57.385Z,28.83
2023-10-06T14:58:24.359Z,29.37
2023-10-06T15:00:50.893Z,28.83
2023-10-06T15:03:18.467Z,29.64
2023-10-06T15:05:46.444Z,29.93
2023-10-06T15:08:13.885Z,30.05
2023-10-06T15:10:42.068Z,29.39
2023-10-06T15:13:14.847Z,29.72
2023-10-06T15:15:43.640Z,30.20
2023-10-06T15:18:16.486Z,29.85
2023-10-06T15:20:43.782Z,30.80
2023-10-06T15:23:14.223Z,30.74
2023-10-06T15:25:54.094Z,31.07
2023-10-06T15:28:31.791Z,30.69
2023-10-06T15:31:05.878Z,30.97
2023-10-06T15:33:34.088Z,31.40
2023-10-06T15:36:04.603Z,32.43
2023-10-06T15:38:32.316Z,32.65
2023-10-06T15:41:16.930Z,33.07
2023-10-06T15:43:46.930Z,34.54
2023-10-06T15:46:16.215Z,34.87
2023-10-06T15:48:43.343Z,34.62
2023-10-06T15:51:12.166Z,35.70
2023-10-06T15:53:41.006Z,35.48
2023-10-06T15:56:16.181Z,36.56
2023-10-06T15:58:45.274Z,37.28
2023-10-06T16:01:13.200Z,37.75
2023-10-06T16:03:42.271Z,38.51
2023-10-06T16:06:13.622Z,39.14
2023-10-06T16:08:44.434Z,39.30
2023-10-06T16:11:11.514Z,39.95
2023-10-06T16:13:40.301Z,40.40
2023-10-06T16:16:12.593Z,40.62
2023-10-06T16:18:39.826Z,41.12
2023-10-06T16:21:12.641Z,41.87
2023-10-06T16:23:42.225Z,41.93
2023-10-06T16:26:10.457Z,42.35
2023-10-06T16:28:40.371Z,42.51
2023-10-06T16:31:08.234Z,42.95
2023-10-06T16:33:37.567Z,43.38
2023-10-06T16:36:07.694Z,43.60
2023-10-06T16:38:34.820Z,43.94
2023-10-06T16:41:01.860Z,44.02
2023-10-06T16:43:35.813Z,44.62
2023-10-06T16:46:12.196Z,44.93
2023-10-06T16:48:42.353Z,45.14
2023-10-06T16:51:09.462Z,45.27
2023-10-06T16:53:37.172Z,46.07
2023-10-06T16:56:06.034Z,45.69
2023-10-06T16:58:33.027Z,46.59
2023-10-06T17:01:05.526Z,47.40
2023-10-06T17:03:33.393Z,47.47
2023-10-06T17:06:00.844Z,49.18
2023-10-06T17:08:27.643Z,49.40
2023-10-06T17:10:54.195Z,49.67
2023-10-06T17:13:23.639Z,50.20
2023-10-06T17:15:50.468Z,50.25
2023-10-06T17:18:17.198Z,50.35
2023-10-06T17:20:45.361Z,50.42
2023-10-06T17:23:12.826Z,50.63
2023-10-06T17:25:39.547Z,50.44
2023-10-06T17:28:07.707Z,50.37
2023-10-06T17:30:37.091Z,49.80
2023-10-06T17:33:08.183Z,49.71
2023-10-06T17:35:35.642Z,49.61
2023-10-06T17:38:02.422Z,49.46
2023-10-06T17:40:30.174Z,49.65
2023-10-06T17:42:56.706Z,49.64
2023-10-06T17:45:26.616Z,50.44
2023-10-06T17:47:56.530Z,50.57
2023-10-06T17:50:24.028Z,51.07
2023-10-06T17:52:50.789Z,51.08
2023-10-06T17:55:17.436Z,51.11
2023-10-06T17:57:43.988Z,51.28
2023-10-06T18:00:12.212Z,51.71
2023-10-06T18:02:39.843Z,52.53
2023-10-06T18:05:09.621Z,52.79
2023-10-06T18:07:36.714Z,51.25
2023-10-06T18:10:09.125Z,50.87
2023-10-06T18:12:37.860Z,52.11
2023-10-06T18:15:06.651Z,52.46
2023-10-06T18:17:33.665Z,52.45
2023-10-06T18:20:00.296Z,52.22
2023-10-06T18:22:28.226Z,52.48
2023-10-06T18:24:54.836Z,52.74
2023-10-06T18:27:22.176Z,52.47
2023-10-06T18:29:48.643Z,51.85
2023-10-06T18:32:15.736Z,52.24
2023-10-06T18:34:43.157Z,52.38
2023-10-06T18:37:09.829Z,52.72
2023-10-06T18:39:37.135Z,53.44
2023-10-06T18:42:03.722Z,54.19
2023-10-06T18:44:30.336Z,54.13
2023-10-06T18:46:56.969Z,53.63
2023-10-06T18:49:23.590Z,54.63
2023-10-06T18:51:50.236Z,54.00
2023-10-06T18:54:16.739Z,53.44
2023-10-06T18:56:43.419Z,53.03
2023-10-06T18:59:10.088Z,53.83
2023-10-06T19:01:37.076Z,54.73
2023-10-06T19:04:07.168Z,54.85
2023-10-06T19:06:33.969Z,55.47
2023-10-06T19:09:00.511Z,54.57
2023-10-06T19:11:27.056Z,54.98
2023-10-06T19:13:53.862Z,52.46
2023-10-06T19:16:21.548Z,54.73
2023-10-06T19:18:51.475Z,55.38
2023-10-06T19:21:21.766Z,55.28
2023-10-06T19:23:49.585Z,54.15
2023-10-06T19:26:20.846Z,54.29
2023-10-06T19:28:48.070Z,56.22
2023-10-06T19:31:14.923Z,54.71
2023-10-06T19:33:52.147Z,55.21
2023-10-06T19:36:20.933Z,55.28
2023-10-06T19:38:48.623Z,55.42
2023-10-06T19:41:16.075Z,56.14
2023-10-06T19:43:43.049Z,56.15
2023-10-06T19:46:11.317Z,56.02
2023-10-06T19:48:43.810Z,56.41
2023-10-06T19:51:11.144Z,54.54
2023-10-06T19:53:38.293Z,54.00
2023-10-06T19:56:05.633Z,54.56
2023-10-06T19:58:32.900Z,55.16
2023-10-06T20:01:00.049Z,56.12
2023-10-06T20:03:27.393Z,56.68
2023-10-06T20:05:54.790Z,54.44
2023-10-06T20:08:21.797Z,54.24
2023-10-06T20:10:53.489Z,56.00
2023-10-06T20:13:20.256Z,57.45
2023-10-06T20:15:47.412Z,57.10
2023-10-06T20:18:15.231Z,56.55
2023-10-06T20:20:43.332Z,56.20
2023-10-06T20:23:09.855Z,56.93
2023-10-06T20:25:36.313Z,58.09
2023-10-06T20:28:04.128Z,58.60
2023-10-06T20:30:31.678Z,57.99
2023-10-06T20:32:58.574Z,59.37
2023-10-06T20:35:27.884Z,59.66
2023-10-06T20:37:56.005Z,59.84
2023-10-06T20:40:25.948Z,59.91
2023-10-06T20:42:56.924Z,59.58
2023-10-06T20:45:28.117Z,59.01
2023-10-06T20:47:56.385Z,59.63
2023-10-06T20:50:26.733Z,59.15
2023-10-06T20:52:54.449Z,59.27
2023-10-06T20:55:21.842Z,58.91
2023-10-06T20:57:49.676Z,59.19
2023-10-06T21:00:23.000Z,59.80
2023-10-06T21:02:49.824Z,60.19
2023-10-06T21:05:18.319Z,61.73
2023-10-06T21:07:45.651Z,60.42
2023-10-06T21:10:14.587Z,60.96
2023-10-06T21:12:43.378Z,60.18
2023-10-06T21:15:11.987Z,59.64
2023-10-06T21:17:39.358Z,60.95
2023-10-06T21:20:08.620Z,60.50
2023-10-06T21:22:35.307Z,59.33
2023-10-06T21:25:01.914Z,58.93
2023-10-06T21:27:29.266Z,59.65
2023-10-06T21:29:55.829Z,60.75
2023-10-06T21:32:22.323Z,61.00
2023-10-06T21:34:49.888Z,59.97
2023-10-06T21:37:16.473Z,59.64
2023-10-06T21:39:45.442Z,61.72
2023-10-06T21:42:12.153Z,61.01
2023-10-06T21:44:38.685Z,61.67
2023-10-06T21:47:05.398Z,60.83
2023-10-06T21:49:32.277Z,60.93
2023-10-06T21:51:59.486Z,60.63
2023-10-06T21:54:25.949Z,60.67
2023-10-06T21:56:53.071Z,62.74
2023-10-06T21:59:19.561Z,61.85
2023-10-06T22:01:46.196Z,63.47
2023-10-06T22:04:14.626Z,63.82
2023-10-06T22:06:41.423Z,62.17
2023-10-06T22:09:16.355Z,62.49
2023-10-06T22:11:45.301Z,60.71
2023-10-06T22:14:13.430Z,59.68
2023-10-06T22:16:41.191Z,61.69
2023-10-06T22:19:11.005Z,62.13
2023-10-06T22:21:37.939Z,62.09
2023-10-06T22:24:06.651Z,64.19
2023-10-06T22:26:33.257Z,62.02
2023-10-06T22:29:00.204Z,60.82
2023-10-06T22:31:27.156Z,62.27
2023-10-06T22:33:56.562Z,62.01
2023-10-06T22:36:24.215Z,62.48
2023-10-06T22:38:55.149Z,61.62
2023-10-06T22:41:21.906Z,61.56
2023-10-06T22:43:48.813Z,61.86
2023-10-06T22:46:16.138Z,61.87
2023-10-06T22:48:45.405Z,62.30
2023-10-06T22:51:13.661Z,63.18
2023-10-06T22:53:40.136Z,63.68
2023-10-06T22:56:07.286Z,63.70
2023-10-06T22:58:34.030Z,63.66
2023-10-06T23:01:01.458Z,63.51
2023-10-06T23:03:30.484Z,63.41
2023-10-06T23:05:58.048Z,63.85
2023-10-06T23:08:25.382Z,63.52
2023-10-06T23:10:52.196Z,63.44
2023-10-06T23:13:19.018Z,63.24
2023-10-06T23:15:48.464Z,62.78
2023-10-06T23:18:18.270Z,61.11
2023-10-06T23:20:47.379Z,60.37
2023-10-06T23:23:14.369Z,60.16
2023-10-06T23:25:47.658Z,61.20
2023-10-06T23:28:15.199Z,61.71
2023-10-06T23:30:42.193Z,61.10
2023-10-06T23:33:11.359Z,61.98
2023-10-06T23:35:38.583Z,61.66
2023-10-06T23:38:08.097Z,62.24
2023-10-06T23:40:35.659Z,61.63
2023-10-06T23:43:02.441Z,62.29
2023-10-06T23:45:32.183Z,61.29
2023-10-06T23:47:59.983Z,61.80
2023-10-06T23:50:30.360Z,61.86
2023-10-06T23:53:01.417Z,61.20
2023-10-06T23:55:29.191Z,61.17
2023-10-06T23:57:56.051Z,61.45
